Knossos Palace — SYQO — position and weather

sailwx.info

Track history (hours):
 
Tides and Currents Weather Stations Pressure Air Temp Water Temp Dewpoint Dewpoint Depression Visibility Wind Speed Wind Dir Waves Ship Positions

Knossos Palace

Last reported at 2014-Oct-02 02:33 UTC. Time now 2014-Oct-02 02:37 UTC.
Position N 37°43' E 023°45'.

Length 214 m; beam 26.4 m; draft 7.3 m.

Type: Passenger vessel. MMSI: 237641000.

Date/timePositionNaut miles runAvg speedWind from/ knotsBaromVisibWave heightAir tempDewpointWater temp
2014-Oct-02 02:33N 37°43' E 023°45'4120.3
2014-Oct-02 00:33N 37°05' E 024°02'2019.6
2014-Oct-01 23:33N 36°47' E 024°11'2020.0
2014-Oct-01 22:33N 36°29' E 024°22'2020.1
2014-Oct-01 21:33N 36°11' E 024°34'2019.9
2014-Oct-01 20:33N 35°54' E 024°46'2019.9
2014-Oct-01 19:33N 35°37' E 024°59'18 1.1
2014-Oct-01 03:30N 35°21' E 025°09'1313.7
2014-Oct-01 02:33N 35°33' E 025°02'1918.9
2014-Oct-01 01:33N 35°49' E 024°50'1919.4
2014-Oct-01 00:33N 36°06' E 024°38'1919.3
2014-Sep-30 23:33N 36°22' E 024°26'1919.0
2014-Sep-30 22:33N 36°39' E 024°15'1919.4
2014-Sep-30 21:33N 36°57' E 024°05'3919.3
2014-Sep-30 19:33N 37°32' E 023°46'1918.8
2014-Sep-30 18:33N 37°49' E 023°37'7 7.3
2014-Sep-30 17:33N 37°57' E 023°38'0 0.0
2014-Sep-30 16:32N 37°57' E 023°38'0 0.0
2014-Sep-30 15:32N 37°57' E 023°38'0 0.0
2014-Sep-30 14:32N 37°57' E 023°38'0 0.0
2014-Sep-30 13:32N 37°57' E 023°38'0 0.0
2014-Sep-30 12:32N 37°57' E 023°38'0 0.0
2014-Sep-30 11:32N 37°57' E 023°38'0 0.0
2014-Sep-30 10:32N 37°57' E 023°38'0 0.0
2014-Sep-30 09:32N 37°57' E 023°38'0 0.0
2014-Sep-30 08:32N 37°57' E 023°38'0 0.0
2014-Sep-30 07:32N 37°57' E 023°38'0 0.0
2014-Sep-30 06:32N 37°57' E 023°38'0 0.0
2014-Sep-30 05:32N 37°57' E 023°38'0 0.0
2014-Sep-30 04:33N 37°57' E 023°38'0 0.0
2014-Sep-30 03:33N 37°57' E 023°38'1212.4
2014-Sep-30 02:33N 37°45' E 023°43'4120.3
2014-Sep-30 00:33N 37°07' E 024°01'2119.7
2014-Sep-29 23:31N 36°47' E 024°10'2020.4
2014-Sep-29 22:33N 36°30' E 024°21'2120.6
2014-Sep-29 21:33N 36°12' E 024°33'2020.1
2014-Sep-29 20:33N 35°54' E 024°46'2019.9
2014-Sep-29 19:33N 35°37' E 024°58'0 0.0
2014-Sep-29 02:30N 35°37' E 024°59'1718.5
2014-Sep-29 01:33N 35°52' E 024°47'1818.3
2014-Sep-29 00:33N 36°08' E 024°36'1817.8
2014-Sep-28 23:33N 36°23' E 024°25'2018.1
2014-Sep-28 22:26N 36°41' E 024°13'1618.4
2014-Sep-28 21:33N 36°56' E 024°04'3918.9
2014-Sep-28 19:29N 37°32' E 023°46'1819.0
2014-Sep-28 18:33N 37°48' E 023°37'8 8.4
2014-Sep-28 17:33N 37°57' E 023°38'0 0.0
2014-Sep-28 16:31N 37°57' E 023°38'0 0.0
2014-Sep-28 15:31N 37°57' E 023°38'0 0.0
2014-Sep-28 14:31N 37°57' E 023°38'0 0.0
2014-Sep-28 13:31N 37°57' E 023°38'0 0.0
2014-Sep-28 12:31N 37°57' E 023°38'0 0.0
2014-Sep-28 11:31N 37°57' E 023°38'0 0.0
2014-Sep-28 10:31N 37°57' E 023°38'0 0.0
2014-Sep-28 09:31N 37°57' E 023°38'0 0.0
2014-Sep-28 08:31N 37°57' E 023°38'0 0.0
2014-Sep-28 07:31N 37°57' E 023°38'0 0.0
2014-Sep-28 06:31N 37°57' E 023°38'0 0.0
2014-Sep-28 05:31N 37°57' E 023°38'0 0.0
2014-Sep-28 04:31N 37°57' E 023°38'0 0.1
2014-Sep-28 03:33N 37°57' E 023°38'1716.8
2014-Sep-28 02:33N 37°41' E 023°46'4120.4
2014-Sep-28 00:34N 37°02' E 024°03'2019.6
2014-Sep-27 23:34N 36°44' E 024°11'2020.3
2014-Sep-27 22:34N 36°26' E 024°23'2020.0
2014-Sep-27 21:34N 36°09' E 024°35'2519.1
2014-Sep-27 20:14N 35°47' E 024°51'1319.2
2014-Sep-27 19:34N 35°36' E 024°59'2 0.1
2014-Sep-27 02:08N 35°37' E 024°58'1119.4
2014-Sep-27 01:33N 35°46' E 024°50'1919.2
2014-Sep-27 00:33N 36°03' E 024°40'1919.4
2014-Sep-26 23:33N 36°20' E 024°27'1919.2
2014-Sep-26 22:33N 36°37' E 024°15'1919.2
2014-Sep-26 21:33N 36°54' E 024°05'4219.6
2014-Sep-26 19:26N 37°33' E 023°46'1719.7
2014-Sep-26 18:33N 37°49' E 023°38'8 7.9
2014-Sep-26 17:33N 37°57' E 023°38'0 0.0
2014-Sep-26 16:32N 37°57' E 023°38'0 0.0
2014-Sep-26 15:32N 37°57' E 023°38'0 0.0
2014-Sep-26 14:32N 37°57' E 023°38'0 0.0
2014-Sep-26 13:32N 37°57' E 023°38'0 0.0
2014-Sep-26 12:32N 37°57' E 023°38'0 0.0
2014-Sep-26 11:32N 37°57' E 023°38'0 0.0
2014-Sep-26 10:32N 37°57' E 023°38'0 0.0
2014-Sep-26 09:32N 37°57' E 023°38'0 0.0
2014-Sep-26 08:32N 37°57' E 023°38'0 0.0
2014-Sep-26 07:32N 37°57' E 023°38'0 0.0
2014-Sep-26 06:32N 37°57' E 023°38'0 0.0
2014-Sep-26 05:32N 37°57' E 023°38'0 0.0
2014-Sep-26 04:32N 37°57' E 023°38'0 0.1
2014-Sep-26 03:33N 37°57' E 023°38'1312.8
2014-Sep-26 02:34N 37°45' E 023°44'2119.6
2014-Sep-26 01:28N 37°25' E 023°53'1819.9
2014-Sep-26 00:33N 37°07' E 024°01'2320.3
2014-Sep-25 23:26N 36°46' E 024°11'1820.5
2014-Sep-25 22:33N 36°30' E 024°21'2020.5
2014-Sep-25 21:33N 36°12' E 024°34'2020.1
2014-Sep-25 20:33N 35°55' E 024°46'2020.1
2014-Sep-25 19:33N 35°37' E 024°58'1818.4
2014-Sep-25 18:33N 35°21' E 025°09'0 0.1
2014-Sep-25 16:18N 35°21' E 025°09'0 0.0
2014-Sep-25 15:18N 35°21' E 025°09'0 0.0
2014-Sep-25 12:12N 35°21' E 025°09'0 0.0
2014-Sep-25 11:30N 35°21' E 025°09'22 2.4
2014-Sep-25 02:05N 35°40' E 024°56'1019.3
2014-Sep-25 01:33N 35°49' E 024°50'1919.3
2014-Sep-25 00:33N 36°06' E 024°38'1919.0
2014-Sep-24 23:33N 36°22' E 024°26'1918.7
2014-Sep-24 22:33N 36°39' E 024°14'1919.1
2014-Sep-24 21:33N 36°56' E 024°05'4019.2
2014-Sep-24 19:28N 37°33' E 023°45'1819.2
2014-Sep-24 18:33N 37°49' E 023°36'8 7.6
2014-Sep-24 17:33N 37°57' E 023°38'0 0.0
2014-Sep-24 16:29N 37°57' E 023°38'0 0.0
2014-Sep-24 15:32N 37°57' E 023°38'0 0.0
2014-Sep-24 14:32N 37°57' E 023°38'0 0.0
2014-Sep-24 13:32N 37°57' E 023°38'0 0.0
2014-Sep-24 12:32N 37°57' E 023°38'0 0.0
2014-Sep-24 11:32N 37°57' E 023°38'0 0.0
2014-Sep-24 10:32N 37°57' E 023°38'0 0.0
2014-Sep-24 09:32N 37°57' E 023°38'0 0.0
2014-Sep-24 08:32N 37°57' E 023°38'0 0.0
2014-Sep-24 07:32N 37°57' E 023°38'0 0.0
2014-Sep-24 06:32N 37°57' E 023°38'0 0.0
2014-Sep-24 05:32N 37°57' E 023°38'0 0.0
2014-Sep-24 04:32N 37°57' E 023°38'0 0.0
2014-Sep-24 03:33N 37°57' E 023°38'1515.1
2014-Sep-24 02:33N 37°43' E 023°45'4220.2
2014-Sep-24 00:28N 37°03' E 024°03'1819.9
2014-Sep-23 23:34N 36°46' E 024°11'2120.7
2014-Sep-23 22:34N 36°27' E 024°22'2120.5
2014-Sep-23 21:33N 36°10' E 024°35'1919.5
2014-Sep-23 20:33N 35°53' E 024°47'1919.0
2014-Sep-23 19:34N 35°36' E 024°59'1817.4
2014-Sep-23 18:33N 35°21' E 025°09'0 0.0
2014-Sep-23 15:29N 35°21' E 025°09'0 0.0
2014-Sep-23 13:17N 35°21' E 025°09'0 0.0
2014-Sep-23 12:29N 35°21' E 025°09'0 0.0
2014-Sep-23 11:23N 35°21' E 025°09'0 0.0
2014-Sep-23 08:11N 35°21' E 025°09'0 0.0
2014-Sep-23 07:29N 35°21' E 025°09'0 0.0
2014-Sep-23 05:30N 35°21' E 025°09'0 0.0
2014-Sep-23 04:33N 35°21' E 025°09'0 0.0
2014-Sep-23 03:28N 35°21' E 025°09'1314.5
2014-Sep-23 02:33N 35°33' E 025°01'1919.0
2014-Sep-23 01:34N 35°49' E 024°49'1919.4
2014-Sep-23 00:33N 36°06' E 024°38'1919.2
2014-Sep-22 23:33N 36°22' E 024°26'1919.0
2014-Sep-22 22:33N 36°39' E 024°14'1919.4
2014-Sep-22 21:33N 36°57' E 024°05'2319.4
2014-Sep-22 20:21N 37°18' E 023°54'1619.4
2014-Sep-22 19:32N 37°33' E 023°46'1919.4
2014-Sep-22 18:33N 37°50' E 023°37'6 6.2
2014-Sep-22 17:33N 37°57' E 023°38'0 0.0
2014-Sep-22 16:31N 37°57' E 023°38'0 0.0
2014-Sep-22 15:31N 37°57' E 023°38'0 0.0
2014-Sep-22 14:31N 37°57' E 023°38'0 0.0
2014-Sep-22 13:31N 37°57' E 023°38'0 0.0
2014-Sep-22 12:28N 37°57' E 023°38'0 0.0
2014-Sep-22 11:31N 37°57' E 023°38'0 0.0
2014-Sep-22 10:31N 37°57' E 023°38'0 0.0
2014-Sep-22 09:31N 37°57' E 023°38'0 0.0
2014-Sep-22 08:31N 37°57' E 023°38'0 0.0
2014-Sep-22 07:31N 37°57' E 023°38'0 0.0
2014-Sep-22 06:31N 37°57' E 023°38'0 0.0
2014-Sep-22 05:31N 37°57' E 023°38'0 0.0
2014-Sep-22 04:31N 37°57' E 023°38'0 0.0
2014-Sep-22 03:33N 37°57' E 023°38'  
Track history (hours):
 
Tides and Currents Weather Stations Pressure Air Temp Water Temp Dewpoint Dewpoint Depression Visibility Wind Speed Wind Dir Waves Ship Positions

Knossos Palace

Last reported at 2014-Oct-02 02:33 UTC. Time now 2014-Oct-02 02:37 UTC.
Position N 37°43' E 023°45'.

Length 214 m; beam 26.4 m; draft 7.3 m.

Type: Passenger vessel. MMSI: 237641000.

Date/timePositionNaut miles runAvg speedWind from/ knotsBaromVisibWave heightAir tempDewpointWater temp
2014-Oct-02 02:33N 37°43' E 023°45'4120.3
2014-Oct-02 00:33N 37°05' E 024°02'2019.6
2014-Oct-01 23:33N 36°47' E 024°11'2020.0
2014-Oct-01 22:33N 36°29' E 024°22'2020.1
2014-Oct-01 21:33N 36°11' E 024°34'2019.9
2014-Oct-01 20:33N 35°54' E 024°46'2019.9
2014-Oct-01 19:33N 35°37' E 024°59'18 1.1
2014-Oct-01 03:30N 35°21' E 025°09'1313.7
2014-Oct-01 02:33N 35°33' E 025°02'1918.9
2014-Oct-01 01:33N 35°49' E 024°50'1919.4
2014-Oct-01 00:33N 36°06' E 024°38'1919.3
2014-Sep-30 23:33N 36°22' E 024°26'1919.0
2014-Sep-30 22:33N 36°39' E 024°15'1919.4
2014-Sep-30 21:33N 36°57' E 024°05'3919.3
2014-Sep-30 19:33N 37°32' E 023°46'1918.8
2014-Sep-30 18:33N 37°49' E 023°37'7 7.3
2014-Sep-30 17:33N 37°57' E 023°38'0 0.0
2014-Sep-30 16:32N 37°57' E 023°38'0 0.0
2014-Sep-30 15:32N 37°57' E 023°38'0 0.0
2014-Sep-30 14:32N 37°57' E 023°38'0 0.0
2014-Sep-30 13:32N 37°57' E 023°38'0 0.0
2014-Sep-30 12:32N 37°57' E 023°38'0 0.0
2014-Sep-30 11:32N 37°57' E 023°38'0 0.0
2014-Sep-30 10:32N 37°57' E 023°38'0 0.0
2014-Sep-30 09:32N 37°57' E 023°38'0 0.0
2014-Sep-30 08:32N 37°57' E 023°38'0 0.0
2014-Sep-30 07:32N 37°57' E 023°38'0 0.0
2014-Sep-30 06:32N 37°57' E 023°38'0 0.0
2014-Sep-30 05:32N 37°57' E 023°38'0 0.0
2014-Sep-30 04:33N 37°57' E 023°38'0 0.0
2014-Sep-30 03:33N 37°57' E 023°38'1212.4
2014-Sep-30 02:33N 37°45' E 023°43'4120.3
2014-Sep-30 00:33N 37°07' E 024°01'2119.7
2014-Sep-29 23:31N 36°47' E 024°10'2020.4
2014-Sep-29 22:33N 36°30' E 024°21'2120.6
2014-Sep-29 21:33N 36°12' E 024°33'2020.1
2014-Sep-29 20:33N 35°54' E 024°46'2019.9
2014-Sep-29 19:33N 35°37' E 024°58'0 0.0
2014-Sep-29 02:30N 35°37' E 024°59'1718.5
2014-Sep-29 01:33N 35°52' E 024°47'1818.3
2014-Sep-29 00:33N 36°08' E 024°36'1817.8
2014-Sep-28 23:33N 36°23' E 024°25'2018.1
2014-Sep-28 22:26N 36°41' E 024°13'1618.4
2014-Sep-28 21:33N 36°56' E 024°04'3918.9
2014-Sep-28 19:29N 37°32' E 023°46'1819.0
2014-Sep-28 18:33N 37°48' E 023°37'8 8.4
2014-Sep-28 17:33N 37°57' E 023°38'0 0.0
2014-Sep-28 16:31N 37°57' E 023°38'0 0.0
2014-Sep-28 15:31N 37°57' E 023°38'0 0.0
2014-Sep-28 14:31N 37°57' E 023°38'0 0.0
2014-Sep-28 13:31N 37°57' E 023°38'0 0.0
2014-Sep-28 12:31N 37°57' E 023°38'0 0.0
2014-Sep-28 11:31N 37°57' E 023°38'0 0.0
2014-Sep-28 10:31N 37°57' E 023°38'0 0.0
2014-Sep-28 09:31N 37°57' E 023°38'0 0.0
2014-Sep-28 08:31N 37°57' E 023°38'0 0.0
2014-Sep-28 07:31N 37°57' E 023°38'0 0.0
2014-Sep-28 06:31N 37°57' E 023°38'0 0.0
2014-Sep-28 05:31N 37°57' E 023°38'0 0.0
2014-Sep-28 04:31N 37°57' E 023°38'0 0.1
2014-Sep-28 03:33N 37°57' E 023°38'1716.8
2014-Sep-28 02:33N 37°41' E 023°46'4120.4
2014-Sep-28 00:34N 37°02' E 024°03'2019.6
2014-Sep-27 23:34N 36°44' E 024°11'2020.3
2014-Sep-27 22:34N 36°26' E 024°23'2020.0
2014-Sep-27 21:34N 36°09' E 024°35'2519.1
2014-Sep-27 20:14N 35°47' E 024°51'1319.2
2014-Sep-27 19:34N 35°36' E 024°59'2 0.1
2014-Sep-27 02:08N 35°37' E 024°58'1119.4
2014-Sep-27 01:33N 35°46' E 024°50'1919.2
2014-Sep-27 00:33N 36°03' E 024°40'1919.4
2014-Sep-26 23:33N 36°20' E 024°27'1919.2
2014-Sep-26 22:33N 36°37' E 024°15'1919.2
2014-Sep-26 21:33N 36°54' E 024°05'4219.6
2014-Sep-26 19:26N 37°33' E 023°46'1719.7
2014-Sep-26 18:33N 37°49' E 023°38'8 7.9
2014-Sep-26 17:33N 37°57' E 023°38'0 0.0
2014-Sep-26 16:32N 37°57' E 023°38'0 0.0
2014-Sep-26 15:32N 37°57' E 023°38'0 0.0
2014-Sep-26 14:32N 37°57' E 023°38'0 0.0
2014-Sep-26 13:32N 37°57' E 023°38'0 0.0
2014-Sep-26 12:32N 37°57' E 023°38'0 0.0
2014-Sep-26 11:32N 37°57' E 023°38'0 0.0
2014-Sep-26 10:32N 37°57' E 023°38'0 0.0
2014-Sep-26 09:32N 37°57' E 023°38'0 0.0
2014-Sep-26 08:32N 37°57' E 023°38'0 0.0
2014-Sep-26 07:32N 37°57' E 023°38'0 0.0
2014-Sep-26 06:32N 37°57' E 023°38'0 0.0
2014-Sep-26 05:32N 37°57' E 023°38'0 0.0
2014-Sep-26 04:32N 37°57' E 023°38'0 0.1
2014-Sep-26 03:33N 37°57' E 023°38'1312.8
2014-Sep-26 02:34N 37°45' E 023°44'2119.6
2014-Sep-26 01:28N 37°25' E 023°53'1819.9
2014-Sep-26 00:33N 37°07' E 024°01'2320.3
2014-Sep-25 23:26N 36°46' E 024°11'1820.5
2014-Sep-25 22:33N 36°30' E 024°21'2020.5
2014-Sep-25 21:33N 36°12' E 024°34'2020.1
2014-Sep-25 20:33N 35°55' E 024°46'2020.1
2014-Sep-25 19:33N 35°37' E 024°58'1818.4
2014-Sep-25 18:33N 35°21' E 025°09'0 0.1
2014-Sep-25 16:18N 35°21' E 025°09'0 0.0
2014-Sep-25 15:18N 35°21' E 025°09'0 0.0
2014-Sep-25 12:12N 35°21' E 025°09'0 0.0
2014-Sep-25 11:30N 35°21' E 025°09'22 2.4
2014-Sep-25 02:05N 35°40' E 024°56'1019.3
2014-Sep-25 01:33N 35°49' E 024°50'1919.3
2014-Sep-25 00:33N 36°06' E 024°38'1919.0
2014-Sep-24 23:33N 36°22' E 024°26'1918.7
2014-Sep-24 22:33N 36°39' E 024°14'1919.1
2014-Sep-24 21:33N 36°56' E 024°05'4019.2
2014-Sep-24 19:28N 37°33' E 023°45'1819.2
2014-Sep-24 18:33N 37°49' E 023°36'8 7.6
2014-Sep-24 17:33N 37°57' E 023°38'0 0.0
2014-Sep-24 16:29N 37°57' E 023°38'0 0.0
2014-Sep-24 15:32N 37°57' E 023°38'0 0.0
2014-Sep-24 14:32N 37°57' E 023°38'0 0.0
2014-Sep-24 13:32N 37°57' E 023°38'0 0.0
2014-Sep-24 12:32N 37°57' E 023°38'0 0.0
2014-Sep-24 11:32N 37°57' E 023°38'0 0.0
2014-Sep-24 10:32N 37°57' E 023°38'0 0.0
2014-Sep-24 09:32N 37°57' E 023°38'0 0.0
2014-Sep-24 08:32N 37°57' E 023°38'0 0.0
2014-Sep-24 07:32N 37°57' E 023°38'0 0.0
2014-Sep-24 06:32N 37°57' E 023°38'0 0.0
2014-Sep-24 05:32N 37°57' E 023°38'0 0.0
2014-Sep-24 04:32N 37°57' E 023°38'0 0.0
2014-Sep-24 03:33N 37°57' E 023°38'1515.1
2014-Sep-24 02:33N 37°43' E 023°45'4220.2
2014-Sep-24 00:28N 37°03' E 024°03'1819.9
2014-Sep-23 23:34N 36°46' E 024°11'2120.7
2014-Sep-23 22:34N 36°27' E 024°22'2120.5
2014-Sep-23 21:33N 36°10' E 024°35'1919.5
2014-Sep-23 20:33N 35°53' E 024°47'1919.0
2014-Sep-23 19:34N 35°36' E 024°59'1817.4
2014-Sep-23 18:33N 35°21' E 025°09'0 0.0
2014-Sep-23 15:29N 35°21' E 025°09'0 0.0
2014-Sep-23 13:17N 35°21' E 025°09'0 0.0
2014-Sep-23 12:29N 35°21' E 025°09'0 0.0
2014-Sep-23 11:23N 35°21' E 025°09'0 0.0
2014-Sep-23 08:11N 35°21' E 025°09'0 0.0
2014-Sep-23 07:29N 35°21' E 025°09'0 0.0
2014-Sep-23 05:30N 35°21' E 025°09'0 0.0
2014-Sep-23 04:33N 35°21' E 025°09'0 0.0
2014-Sep-23 03:28N 35°21' E 025°09'1314.5
2014-Sep-23 02:33N 35°33' E 025°01'1919.0
2014-Sep-23 01:34N 35°49' E 024°49'1919.4
2014-Sep-23 00:33N 36°06' E 024°38'1919.2
2014-Sep-22 23:33N 36°22' E 024°26'1919.0
2014-Sep-22 22:33N 36°39' E 024°14'1919.4
2014-Sep-22 21:33N 36°57' E 024°05'2319.4
2014-Sep-22 20:21N 37°18' E 023°54'1619.4
2014-Sep-22 19:32N 37°33' E 023°46'1919.4
2014-Sep-22 18:33N 37°50' E 023°37'6 6.2
2014-Sep-22 17:33N 37°57' E 023°38'0 0.0
2014-Sep-22 16:31N 37°57' E 023°38'0 0.0
2014-Sep-22 15:31N 37°57' E 023°38'0 0.0
2014-Sep-22 14:31N 37°57' E 023°38'0 0.0
2014-Sep-22 13:31N 37°57' E 023°38'0 0.0
2014-Sep-22 12:28N 37°57' E 023°38'0 0.0
2014-Sep-22 11:31N 37°57' E 023°38'0 0.0
2014-Sep-22 10:31N 37°57' E 023°38'0 0.0
2014-Sep-22 09:31N 37°57' E 023°38'0 0.0
2014-Sep-22 08:31N 37°57' E 023°38'0 0.0
2014-Sep-22 07:31N 37°57' E 023°38'0 0.0
2014-Sep-22 06:31N 37°57' E 023°38'0 0.0
2014-Sep-22 05:31N 37°57' E 023°38'0 0.0
2014-Sep-22 04:31N 37°57' E 023°38'0 0.0
2014-Sep-22 03:33N 37°57' E 023°38'  

Dump ship's entire track history